SBIZ

Details ICAO SBIZ (IMP)
Name Prefeito Renato Moreira
Region Brazil
Timezone America/Fortaleza (UTC-3.0)
Plans Departing 11
Arriving 13
Stats Elevation 431 ft / 131 m (AMSL)
Location -5.531290° -47.460048°
Runways 1
Magnetic Variation 20.986° W
Sunrise 2017-12-17 08:54:09 UTC / 2017-12-17 05:54:09 Local
Sunset 2017-12-17 21:20:38 UTC / 2017-12-17 18:20:38 Local
Advertisement - Login to hide

Runways

ID Width Length Bearing (true) Bearing (mag) Surface Threshold Offset Overrun Length
07 148 ft / 45 m 5,932 ft / 1,808 m 53.74° 74.73° Asphalt 0 ft / 0 m 200 ft / 61 m
25 148 ft / 45 m 5,932 ft / 1,808 m 233.74° 254.73° Asphalt 0 ft / 0 m 200 ft / 61 m

Map

Weather


0- 5 10 15 20 25 30 35+ Temperature / ° C

Clouds and Precipitation
Forecast for 2017-12-18 00:00 UTC. Updated 19 minutes ago

Ground ~20,000 ft ~40,000 ft Winds

METAR

SBIZ 171800Z 23002KT 9999 BKN023 31/26 Q1010

TAF

TAF SBIZ 171600Z 1718/1806 27005KT 9999 SCT020 TX33/1718Z TN26/1806Z BECMG 1722/1724 24003KT RMK PEH

Frequencies

Tower 125.85 MHz RDO
Warning: Do not use this data for real-world aviation or navigation. No guarantee of current accuracy is given.